CheckWX is a tool to help pilots better visualize weather data.  It is not intended as a substitute for an official pre-flight weather briefing.

19:16:21 UTC

EHSA METAR
Euro Platform
Euro Platform, The Netherlands
Current

51 mins ago

EHSA 261825Z AUTO 21026KT 4900 -RA ///////// 13/12 Q1010 W10/H22
Observed
May-26 @ 18:25 UTC
Wind
  • 210° at 26 KTS
Visibility
4,892 meters
Conditions
Light Rain
Temperature
13°C / 55°F
Dewpoint
12°C / 54°F
Humidity
94%
Altimeter
29.82" Hg
Pressure
1009.92 hPa
Previous

1 hour ago

EHSA 261755Z AUTO 21028KT 5000 -RA ///////// 13/12 Q1010 W10/H23
Observed
May-26 @ 17:55 UTC
Wind
  • 210° at 28 KTS
Visibility
5,005 meters
Conditions
Light Rain
Temperature
13°C / 55°F
Dewpoint
12°C / 54°F
Humidity
94%
Altimeter
29.82" Hg
Pressure
1009.92 hPa
Previous

2 hours ago

EHSA 261725Z AUTO 21029KT 9000 ///////// 13/12 Q1010 REDZ W10/H22
Observed
May-26 @ 17:25 UTC
Wind
  • 210° at 29 KTS
Visibility
8,996 meters
Temperature
13°C / 55°F
Dewpoint
12°C / 54°F
Humidity
94%
Altimeter
29.82" Hg
Pressure
1009.92 hPa